Time;durP1;ratioP1;P1;durP2;ratioP2;P2;SDS_P1;SDS_P2;PMS_P1;PMS_P2;Temp;Humidity;BMP_temperature;BMP_pressure;BME280_temperature;BME280_humidity;BME280_pressure;Samples;Min_cycle;Max_cycle;Signal;HPM_P1;HPM_P2
2021/08/30 00:01:28;;;;;;;4.07;2.60;;;;;;;15.61;100.00;97637.41;4988703;28;20037;-65
2021/08/30 00:03:53;;;;;;;7.07;2.50;;;;;;;15.59;100.00;97635.84;4989128;28;20023;-65
2021/08/30 00:06:19;;;;;;;6.55;2.53;;;;;;;15.55;100.00;97627.31;4985951;28;20408;-65
2021/08/30 00:08:44;;;;;;;3.90;2.50;;;;;;;15.42;100.00;97627.31;4984575;28;20049;-63
2021/08/30 00:11:10;;;;;;;3.10;2.15;;;;;;;15.56;100.00;97631.63;4985728;28;20030;-62
2021/08/30 00:13:35;;;;;;;4.45;2.28;;;;;;;15.52;100.00;97627.53;4986382;28;20570;-66
2021/08/30 00:16:01;;;;;;;4.00;2.40;;;;;;;15.53;100.00;97634.47;4986910;28;20122;-63
2021/08/30 00:18:26;;;;;;;5.07;2.38;;;;;;;15.26;100.00;97631.91;4985380;28;20026;-66
2021/08/30 00:20:52;;;;;;;4.97;2.30;;;;;;;15.45;100.00;97631.50;4985830;28;20116;-64
2021/08/30 00:23:18;;;;;;;4.20;2.05;;;;;;;15.47;100.00;97629.59;4986752;28;20022;-65
2021/08/30 00:25:43;;;;;;;6.22;2.33;;;;;;;15.40;100.00;97628.34;4985025;28;20085;-63
2021/08/30 00:28:09;;;;;;;6.03;1.90;;;;;;;15.45;100.00;97628.88;4984077;28;20030;-65
2021/08/30 00:30:34;;;;;;;4.13;2.25;;;;;;;15.34;100.00;97623.50;4985785;28;20033;-66
2021/08/30 00:32:59;;;;;;;3.67;2.08;;;;;;;15.35;100.00;97615.50;4985203;28;20114;-64
2021/08/30 00:35:25;;;;;;;6.18;2.00;;;;;;;15.37;100.00;97620.69;4984218;28;20619;-65
2021/08/30 00:37:51;;;;;;;4.35;2.17;;;;;;;15.36;100.00;97618.97;4988845;28;20036;-65
2021/08/30 00:40:17;;;;;;;3.38;2.00;;;;;;;15.30;100.00;97611.50;4986291;28;20061;-65
2021/08/30 00:42:46;;;;;;;3.83;2.08;;;;;;;15.12;100.00;97611.78;4986426;28;20058;-66
2021/08/30 00:45:13;;;;;;;3.45;2.08;;;;;;;15.21;100.00;97608.53;4985209;28;20069;-65
2021/08/30 00:47:41;;;;;;;2.50;1.67;;;;;;;15.48;100.00;97615.53;4987714;28;20113;-64
2021/08/30 00:50:08;;;;;;;4.68;2.03;;;;;;;15.65;100.00;97600.41;4986527;28;20041;-65
2021/08/30 00:52:34;;;;;;;3.88;2.05;;;;;;;15.47;100.00;97600.69;4982482;28;20942;-65
2021/08/30 00:54:59;;;;;;;2.55;1.67;;;;;;;15.40;100.00;97608.19;4984780;28;20026;-66
2021/08/30 00:57:26;;;;;;;3.25;1.80;;;;;;;15.29;100.00;97599.31;4985061;28;20100;-64
2021/08/30 00:59:51;;;;;;;3.47;1.60;;;;;;;15.20;100.00;97604.25;4985486;28;20025;-64
2021/08/30 01:02:17;;;;;;;4.68;1.92;;;;;;;15.30;100.00;97603.63;4983414;28;20038;-64
2021/08/30 01:04:43;;;;;;;3.65;1.83;;;;;;;15.32;100.00;97607.00;4984975;28;20577;-63
2021/08/30 01:07:38;;;;;;;4.75;1.88;;;;;;;15.32;100.00;97607.00;4983108;28;20050;-65
2021/08/30 01:10:17;;;;;;;7.72;2.08;;;;;;;15.24;100.00;97602.25;4987121;28;20065;-64
2021/08/30 01:12:51;;;;;;;3.60;1.80;;;;;;;15.18;100.00;97606.13;4984279;28;20074;-64
2021/08/30 01:15:21;;;;;;;3.55;1.80;;;;;;;15.25;100.00;97597.84;4985599;28;20666;-64
2021/08/30 01:17:47;;;;;;;3.95;1.70;;;;;;;15.28;100.00;97597.63;4983997;28;20018;-64
2021/08/30 01:20:31;;;;;;;4.53;2.17;;;;;;;15.16;100.00;97584.38;4986143;28;20396;-64
2021/08/30 01:22:58;;;;;;;3.10;1.70;;;;;;;15.06;100.00;97575.41;4984595;28;20022;-64
2021/08/30 01:25:25;;;;;;;2.60;1.80;;;;;;;15.11;100.00;97575.97;4987791;28;20040;-66
2021/08/30 01:27:53;;;;;;;3.13;1.60;;;;;;;15.15;100.00;97581.84;4989481;28;20514;-66
2021/08/30 01:30:21;;;;;;;3.97;1.60;;;;;;;15.22;100.00;97568.19;4987010;28;20030;-65
2021/08/30 01:32:52;;;;;;;2.60;1.60;;;;;;;14.97;100.00;97576.03;4987021;28;20101;-66
2021/08/30 01:35:24;;;;;;;2.42;1.60;;;;;;;15.11;100.00;97561.97;4987551;28;20652;-65
2021/08/30 01:37:54;;;;;;;2.03;1.55;;;;;;;15.10;100.00;97558.50;4988494;28;20026;-66
2021/08/30 01:40:21;;;;;;;3.13;1.77;;;;;;;15.04;100.00;97569.44;4987612;28;20776;-66
2021/08/30 01:42:51;;;;;;;5.22;2.00;;;;;;;15.07;100.00;97574.47;4987757;28;20472;-64
2021/08/30 01:45:23;;;;;;;4.05;1.60;;;;;;;15.05;100.00;97576.34;4986448;28;20022;-63
2021/08/30 01:47:50;;;;;;;4.53;2.28;;;;;;;14.95;100.00;97576.13;4988125;28;20014;-66
2021/08/30 01:50:20;;;;;;;8.38;2.33;;;;;;;14.76;100.00;97581.72;4984752;28;20132;-66
2021/08/30 01:52:47;;;;;;;6.03;2.08;;;;;;;14.98;100.00;97575.91;4987771;28;20058;-64
2021/08/30 02:00:42;;;;;;;4.70;2.20;;;;;;;14.81;100.00;97577.03;4987158;28;20269;-65
2021/08/30 02:00:51;;;;;;;2.80;1.55;;;;;;;15.03;100.00;97572.97;4989621;28;20061;-64
2021/08/30 02:03:29;;;;;;;6.47;2.20;;;;;;;14.76;100.00;97575.63;4984973;28;20038;-65
2021/08/30 02:06:02;;;;;;;3.13;1.90;;;;;;;14.72;100.00;97585.50;4986020;28;20044;-65
2021/08/30 02:08:30;;;;;;;4.15;1.73;;;;;;;14.79;100.00;97576.25;4986660;28;20080;-65
2021/08/30 02:11:04;;;;;;;3.88;1.90;;;;;;;14.73;100.00;97574.03;4987499;28;20265;-67
2021/08/30 02:13:29;;;;;;;4.15;1.83;;;;;;;14.69;100.00;97569.94;4987759;28;20455;-66
2021/08/30 02:15:57;;;;;;;6.90;2.40;;;;;;;14.65;100.00;97569.28;4985590;28;20042;-63
2021/08/30 02:18:31;;;;;;;4.15;1.92;;;;;;;14.75;100.00;97563.44;4985747;28;20130;-66
2021/08/30 02:21:11;;;;;;;2.35;1.50;;;;;;;14.88;100.00;97558.25;4987225;28;20037;-65
2021/08/30 02:23:59;;;;;;;3.33;1.70;;;;;;;14.89;100.00;97559.91;4984660;28;20037;-63
2021/08/30 02:26:43;;;;;;;4.05;2.15;;;;;;;14.79;100.00;97557.88;4985040;28;20583;-65
2021/08/30 02:29:12;;;;;;;5.10;1.80;;;;;;;14.77;100.00;97551.91;4986962;28;20026;-63
2021/08/30 02:31:40;;;;;;;4.10;1.63;;;;;;;14.63;100.00;97551.94;4984883;28;20043;-64
2021/08/30 02:34:07;;;;;;;2.85;1.60;;;;;;;14.69;100.00;97541.06;4984868;28;20120;-63
2021/08/30 02:36:34;;;;;;;2.90;1.60;;;;;;;14.60;100.00;97544.28;4984244;28;20034;-63
2021/08/30 02:39:01;;;;;;;2.85;1.77;;;;;;;14.31;100.00;97549.56;4988115;28;20042;-64
2021/08/30 02:41:28;;;;;;;7.20;1.80;;;;;;;14.69;100.00;97554.19;4986839;28;20177;-63
2021/08/30 02:43:57;;;;;;;2.10;1.38;;;;;;;14.97;100.00;97547.13;4986733;28;20586;-65
2021/08/30 02:46:23;;;;;;;5.05;1.88;;;;;;;14.52;100.00;97551.75;4987153;28;20512;-64
2021/08/30 02:48:52;;;;;;;5.72;1.88;;;;;;;14.45;100.00;97546.91;4986921;28;20061;-65
2021/08/30 02:51:18;;;;;;;2.47;1.65;;;;;;;14.61;100.00;97552.06;4987897;28;20038;-63
2021/08/30 02:53:45;;;;;;;5.82;2.40;;;;;;;14.48;100.00;97547.66;4985527;28;20022;-64
2021/08/30 02:56:11;;;;;;;4.00;1.80;;;;;;;14.24;100.00;97553.53;5000331;28;20034;-64
2021/08/30 02:58:38;;;;;;;5.40;2.05;;;;;;;14.42;100.00;97552.34;4986268;28;20584;-64
2021/08/30 03:01:03;;;;;;;2.90;1.60;;;;;;;14.75;100.00;97543.28;4986797;28;20091;-65
2021/08/30 03:03:29;;;;;;;4.53;1.95;;;;;;;14.79;100.00;97536.88;4984544;28;20027;-64
2021/08/30 03:05:56;;;;;;;3.63;1.90;;;;;;;14.76;100.00;97537.09;4992368;28;20065;-64
2021/08/30 03:08:22;;;;;;;4.43;1.88;;;;;;;14.52;100.00;97541.28;4988643;28;20019;-64
2021/08/30 03:10:47;;;;;;;3.05;1.80;;;;;;;14.52;100.00;97536.03;4986563;28;20467;-63
2021/08/30 03:13:13;;;;;;;3.40;1.90;;;;;;;14.38;100.00;97540.38;4985633;28;20059;-63
2021/08/30 03:15:43;;;;;;;5.93;1.70;;;;;;;14.46;100.00;97546.00;4987257;28;20046;-66
2021/08/30 03:18:12;;;;;;;2.75;1.70;;;;;;;14.34;100.00;97549.38;4985260;28;20554;-63
2021/08/30 03:20:38;;;;;;;3.10;1.48;;;;;;;14.50;100.00;97540.53;4986153;28;20046;-64
2021/08/30 03:23:05;;;;;;;2.67;1.20;;;;;;;14.76;100.00;97542.34;4988557;28;20128;-66
2021/08/30 03:25:33;;;;;;;3.45;1.73;;;;;;;14.56;100.00;97542.78;4986633;28;20042;-66
2021/08/30 03:28:02;;;;;;;3.45;1.50;;;;;;;14.78;100.00;97537.84;4987986;28;20034;-64
2021/08/30 03:30:28;;;;;;;2.20;1.52;;;;;;;14.44;100.00;97533.91;4987483;28;20038;-65
2021/08/30 03:32:54;;;;;;;2.50;1.70;;;;;;;14.93;100.00;97537.78;4987044;28;20022;-64
2021/08/30 03:35:22;;;;;;;2.70;1.55;;;;;;;14.47;100.00;97544.19;4988673;28;20560;-64
2021/08/30 03:37:48;;;;;;;2.38;1.40;;;;;;;14.51;100.00;97548.31;4987336;28;20018;-65
2021/08/30 03:40:15;;;;;;;2.30;1.50;;;;;;;14.84;100.00;97550.56;4986058;28;20030;-63
2021/08/30 03:42:42;;;;;;;2.75;1.65;;;;;;;14.80;100.00;97553.50;4986379;28;20037;-65
2021/08/30 03:45:10;;;;;;;2.90;1.80;;;;;;;14.75;100.00;97559.03;4986701;28;20025;-63
2021/08/30 03:47:37;;;;;;;2.70;1.80;;;;;;;14.78;100.00;97558.84;4985335;28;20035;-64
2021/08/30 03:50:03;;;;;;;2.80;1.70;;;;;;;14.78;100.00;97553.59;4987381;28;20034;-63
2021/08/30 03:52:31;;;;;;;2.67;1.80;;;;;;;14.58;100.00;97561.91;4988045;28;20041;-64
2021/08/30 03:54:57;;;;;;;3.75;1.80;;;;;;;14.39;100.00;97563.06;4986365;28;20815;-64
2021/08/30 03:57:23;;;;;;;4.63;2.13;;;;;;;14.42;100.00;97562.00;4985205;28;20141;-66
2021/08/30 03:59:55;;;;;;;3.03;1.80;;;;;;;14.53;100.00;97564.78;4986391;28;20065;-63
2021/08/30 04:02:22;;;;;;;2.83;1.80;;;;;;;14.46;100.00;97566.97;4983465;28;20042;-63
2021/08/30 04:04:48;;;;;;;2.10;1.38;;;;;;;14.60;100.00;97565.28;4986868;28;20026;-64
2021/08/30 04:07:16;;;;;;;5.03;1.80;;;;;;;14.61;100.00;97570.44;4982749;28;20509;-65
2021/08/30 04:09:42;;;;;;;3.67;2.08;;;;;;;14.61;100.00;97574.81;4985458;28;20524;-65
2021/08/30 04:12:07;;;;;;;4.63;1.83;;;;;;;14.52;100.00;97575.38;4991265;28;20038;-63
2021/08/30 04:14:34;;;;;;;3.47;1.80;;;;;;;14.79;100.00;97573.63;4985568;28;20030;-63
2021/08/30 04:16:59;;;;;;;2.95;2.05;;;;;;;14.78;100.00;97582.47;4983843;28;20034;-64
2021/08/30 04:19:24;;;;;;;7.18;2.10;;;;;;;14.58;100.00;97580.28;4988928;28;20030;-65
2021/08/30 04:21:49;;;;;;;4.80;2.35;;;;;;;14.57;100.00;97581.19;4985614;28;20273;-65
2021/08/30 04:24:15;;;;;;;2.92;1.70;;;;;;;14.81;100.00;97578.78;4998139;28;20120;-64
2021/08/30 04:26:40;;;;;;;2.38;1.60;;;;;;;14.68;100.00;97578.75;4986602;28;20083;-65
2021/08/30 04:29:06;;;;;;;3.17;1.88;;;;;;;14.54;100.00;97581.38;4986628;28;20490;-64
2021/08/30 04:31:32;;;;;;;4.93;1.83;;;;;;;14.61;100.00;97585.31;4983205;28;20031;-64
2021/08/30 04:33:57;;;;;;;9.18;2.00;;;;;;;14.53;100.00;97588.41;4987258;28;20098;-65
2021/08/30 04:36:23;;;;;;;2.97;1.90;;;;;;;14.26;100.00;97589.22;4986531;28;20530;-63
2021/08/30 04:38:48;;;;;;;7.95;2.20;;;;;;;14.40;100.00;97590.97;4984359;28;20615;-63
2021/08/30 04:41:14;;;;;;;2.28;1.58;;;;;;;14.77;100.00;97586.03;4985666;28;20037;-63
2021/08/30 04:43:40;;;;;;;2.90;1.75;;;;;;;14.68;100.00;97586.63;4984236;28;20069;-64
2021/08/30 04:46:05;;;;;;;3.67;2.00;;;;;;;14.43;100.00;97593.41;4984185;28;20129;-64
2021/08/30 04:48:30;;;;;;;2.95;2.10;;;;;;;14.45;100.00;97599.41;4979314;28;20014;-64
2021/08/30 04:50:58;;;;;;;4.05;2.22;;;;;;;14.44;100.00;97597.69;4984201;28;20419;-64
2021/08/30 04:53:24;;;;;;;7.10;2.30;;;;;;;14.44;100.00;97597.69;4985277;28;20033;-65
2021/08/30 04:55:49;;;;;;;4.63;2.20;;;;;;;14.40;100.00;97593.59;4985388;28;20045;-64
2021/08/30 04:58:14;;;;;;;5.28;1.83;;;;;;;14.67;100.00;97595.44;4989212;28;20467;-66
2021/08/30 05:00:40;;;;;;;2.85;1.95;;;;;;;15.07;100.00;97595.50;4991699;28;20041;-65
2021/08/30 05:03:05;;;;;;;2.70;1.90;;;;;;;14.64;100.00;97599.09;4989275;28;20026;-64
2021/08/30 05:05:30;;;;;;;4.40;2.30;;;;;;;14.80;100.00;97601.59;4990655;28;20046;-63
2021/08/30 05:07:56;;;;;;;3.08;1.92;;;;;;;14.97;100.00;97599.66;4992033;28;20529;-64
2021/08/30 05:10:22;;;;;;;6.28;2.25;;;;;;;14.63;100.00;97601.81;4993050;28;20023;-65
2021/08/30 05:12:47;;;;;;;7.05;1.95;;;;;;;14.80;100.00;97598.97;4991048;28;20514;-64
2021/08/30 05:15:12;;;;;;;3.85;2.10;;;;;;;14.74;100.00;97609.88;4991682;28;20022;-65
2021/08/30 05:17:38;;;;;;;2.95;2.05;;;;;;;14.80;100.00;97606.84;4991435;28;20033;-65
2021/08/30 05:20:04;;;;;;;2.80;1.90;;;;;;;14.74;100.00;97604.63;4993307;28;20030;-64
2021/08/30 05:22:30;;;;;;;3.88;2.40;;;;;;;14.83;100.00;97613.66;4989989;28;20591;-65
2021/08/30 05:24:55;;;;;;;4.57;2.20;;;;;;;14.87;100.00;97609.06;4990495;28;20026;-66
2021/08/30 05:27:21;;;;;;;2.80;1.67;;;;;;;15.17;100.00;97606.22;4987678;28;20049;-66
2021/08/30 05:29:46;;;;;;;3.85;2.58;;;;;;;14.79;100.00;97605.13;4992028;28;20035;-65
2021/08/30 05:32:11;;;;;;;3.35;2.13;;;;;;;14.75;100.00;97606.28;4995261;28;20033;-64
2021/08/30 05:34:37;;;;;;;3.40;2.40;;;;;;;14.77;100.00;97614.91;4989600;28;20088;-67
2021/08/30 05:37:02;;;;;;;4.30;2.38;;;;;;;14.98;100.00;97617.06;4989476;28;20046;-65
2021/08/30 05:39:28;;;;;;;5.05;2.03;;;;;;;15.04;100.00;97612.28;4990475;28;20038;-64
2021/08/30 05:41:53;;;;;;;2.90;1.90;;;;;;;15.08;100.00;97612.09;4990109;28;20062;-64
2021/08/30 05:44:18;;;;;;;5.53;2.20;;;;;;;14.97;100.00;97612.78;4993976;28;20080;-63
2021/08/30 05:46:44;;;;;;;5.07;2.47;;;;;;;14.98;100.00;97606.56;4991272;28;20039;-63
2021/08/30 05:49:09;;;;;;;3.17;2.05;;;;;;;15.14;100.00;97617.75;4990374;28;20022;-64
2021/08/30 05:51:37;;;;;;;5.45;2.40;;;;;;;15.00;100.00;97613.44;4988424;28;20459;-66
2021/08/30 05:54:02;;;;;;;5.82;2.53;;;;;;;15.08;100.00;97612.09;4989396;28;20027;-66
2021/08/30 05:56:28;;;;;;;3.90;2.10;;;;;;;15.28;100.00;97613.41;4990820;28;20042;-65
2021/08/30 05:58:54;;;;;;;2.83;2.00;;;;;;;15.22;100.00;97604.97;4988507;28;20084;-65
2021/08/30 06:01:19;;;;;;;6.55;2.20;;;;;;;15.22;100.00;97612.03;4989755;28;20038;-65
2021/08/30 06:03:47;;;;;;;5.63;2.40;;;;;;;15.08;100.00;97614.72;4987781;28;20106;-65
2021/08/30 06:06:12;;;;;;;5.18;2.40;;;;;;;15.16;100.00;97613.28;4991018;28;20061;-66
2021/08/30 06:08:38;;;;;;;3.83;2.22;;;;;;;15.04;100.00;97614.06;4993642;28;20054;-66
2021/08/30 06:11:03;;;;;;;3.88;2.22;;;;;;;15.05;100.00;97621.00;4990407;28;20042;-64
2021/08/30 06:13:28;;;;;;;4.28;2.40;;;;;;;15.15;100.00;97624.72;4986759;28;20521;-64
2021/08/30 06:15:54;;;;;;;6.90;2.70;;;;;;;15.25;100.00;97624.09;4988895;28;20043;-63
2021/08/30 06:18:19;;;;;;;7.60;2.50;;;;;;;15.23;100.00;97622.41;4989833;28;20030;-64
2021/08/30 06:20:45;;;;;;;4.20;2.28;;;;;;;15.45;100.00;97620.16;4990285;28;20069;-64
2021/08/30 06:23:10;;;;;;;4.35;2.20;;;;;;;15.30;100.00;97624.66;4987814;28;20034;-65
2021/08/30 06:25:36;;;;;;;4.50;2.33;;;;;;;15.04;100.00;97633.28;4987211;28;20404;-64
2021/08/30 06:28:01;;;;;;;7.53;2.88;;;;;;;15.51;100.00;97630.25;4987360;28;20112;-66
2021/08/30 06:30:27;;;;;;;3.75;2.05;;;;;;;15.25;100.00;97624.09;4991738;28;20714;-63
2021/08/30 06:32:52;;;;;;;3.60;1.80;;;;;;;15.00;100.00;97637.06;4990846;28;20026;-63
2021/08/30 06:35:18;;;;;;;3.30;1.95;;;;;;;15.47;100.00;97637.50;4990533;28;20030;-64
2021/08/30 06:37:44;;;;;;;4.93;1.90;;;;;;;15.66;100.00;97638.88;4991563;28;20030;-63
2021/08/30 06:40:10;;;;;;;4.53;1.80;;;;;;;15.79;100.00;97645.06;4990082;28;20485;-63
2021/08/30 06:42:36;;;;;;;2.92;1.63;;;;;;;15.41;100.00;97645.81;4988566;28;20151;-66
2021/08/30 06:45:03;;;;;;;3.50;1.70;;;;;;;15.38;100.00;97640.75;4989830;28;20467;-67
2021/08/30 06:47:29;;;;;;;4.32;1.90;;;;;;;15.46;100.00;97648.09;4989302;28;20062;-67
2021/08/30 06:49:54;;;;;;;2.53;1.60;;;;;;;15.71;100.00;97649.94;4991397;28;20041;-64
2021/08/30 06:52:20;;;;;;;3.22;1.58;;;;;;;15.51;100.00;97653.91;4989262;28;20034;-65
2021/08/30 06:54:45;;;;;;;3.00;1.58;;;;;;;15.75;100.00;97654.06;4989628;28;20395;-67
2021/08/30 06:57:10;;;;;;;2.55;1.40;;;;;;;15.59;100.00;97651.63;4988050;28;20034;-65
2021/08/30 06:59:36;;;;;;;6.03;1.40;;;;;;;15.74;100.00;97655.03;4988995;28;20085;-65
2021/08/30 07:02:01;;;;;;;3.58;1.30;;;;;;;15.71;100.00;97652.56;4988378;28;20035;-64
2021/08/30 07:04:26;;;;;;;2.75;1.30;;;;;;;15.89;100.00;97655.78;4988217;28;20037;-67
2021/08/30 07:06:52;;;;;;;4.78;1.27;;;;;;;15.90;100.00;97658.31;4987719;28;20073;-66
2021/08/30 07:09:17;;;;;;;2.42;1.30;;;;;;;16.00;100.00;97654.09;4988492;28;20549;-64
2021/08/30 07:11:42;;;;;;;1.95;1.23;;;;;;;15.92;100.00;97661.69;5004691;28;20041;-66
2021/08/30 07:14:08;;;;;;;1.80;1.20;;;;;;;15.89;100.00;97661.03;4998232;28;20031;-67
2021/08/30 07:16:33;;;;;;;2.80;1.10;;;;;;;15.76;100.00;97655.78;4986873;28;20169;-65
2021/08/30 07:19:00;;;;;;;2.53;1.20;;;;;;;16.20;100.00;97662.41;4987071;28;20392;-66
2021/08/30 07:21:27;;;;;;;2.60;1.30;;;;;;;16.51;98.27;97668.16;4988614;28;20041;-65
2021/08/30 07:23:53;;;;;;;1.80;1.10;;;;;;;16.77;97.43;97661.88;4987431;28;20030;-64
2021/08/30 07:26:18;;;;;;;1.90;1.10;;;;;;;16.06;100.00;97668.59;4986679;28;20088;-65
2021/08/30 07:28:43;;;;;;;4.32;1.40;;;;;;;16.14;100.00;97673.38;4988036;28;20037;-66
2021/08/30 07:31:09;;;;;;;2.03;1.15;;;;;;;16.43;97.60;97668.72;4987045;28;20038;-66
2021/08/30 07:33:34;;;;;;;1.90;1.30;;;;;;;16.24;100.00;97684.91;4987639;28;20034;-64
2021/08/30 07:35:59;;;;;;;2.45;1.23;;;;;;;16.14;100.00;97678.63;4986182;28;20596;-64
2021/08/30 07:38:25;;;;;;;2.10;1.23;;;;;;;16.28;99.45;97677.66;4985647;28;20030;-64
2021/08/30 07:40:50;;;;;;;4.22;1.50;;;;;;;16.17;100.00;97684.53;4986957;28;20065;-65
2021/08/30 07:43:15;;;;;;;1.77;1.20;;;;;;;16.57;97.24;97683.53;4989257;28;20065;-63
2021/08/30 07:45:41;;;;;;;2.17;1.05;;;;;;;16.76;98.11;97683.91;4986996;28;20503;-64
2021/08/30 07:48:06;;;;;;;2.00;1.08;;;;;;;17.17;92.96;97687.19;4989214;28;20132;-64
2021/08/30 07:50:32;;;;;;;1.35;0.90;;;;;;;17.80;91.89;97684.31;4988007;28;20053;-64
2021/08/30 07:52:57;;;;;;;1.10;0.90;;;;;;;17.67;90.44;97689.66;4988310;28;20026;-64
2021/08/30 07:55:23;;;;;;;3.22;1.10;;;;;;;17.47;90.77;97681.44;4987794;28;20404;-64
2021/08/30 07:57:48;;;;;;;2.00;0.90;;;;;;;16.68;92.15;97691.50;4990500;28;20038;-65
2021/08/30 08:00:14;;;;;;;1.77;1.10;;;;;;;16.43;95.64;97702.06;4987929;28;20029;-64
2021/08/30 08:02:40;;;;;;;1.40;1.00;;;;;;;17.01;91.25;97705.88;4987696;28;20034;-66
2021/08/30 08:05:06;;;;;;;1.80;1.00;;;;;;;17.04;92.99;97708.31;4987410;28;20104;-64
2021/08/30 08:07:31;;;;;;;2.50;1.00;;;;;;;17.02;92.21;97710.22;4988699;28;20042;-64
2021/08/30 08:09:56;;;;;;;1.55;1.00;;;;;;;16.91;92.24;97723.31;4988483;28;20131;-64
2021/08/30 08:12:22;;;;;;;2.20;0.98;;;;;;;17.03;91.36;97719.78;4988317;28;20050;-64
2021/08/30 08:14:47;;;;;;;1.50;0.90;;;;;;;17.41;89.65;97721.44;4986428;28;20139;-65
2021/08/30 08:17:13;;;;;;;1.33;0.90;;;;;;;17.43;90.90;97718.69;4996701;28;20046;-65
2021/08/30 08:19:38;;;;;;;4.63;1.10;;;;;;;17.90;89.01;97723.09;4988142;28;20401;-65
2021/08/30 08:22:04;;;;;;;2.80;1.10;;;;;;;18.02;86.50;97725.78;4988343;28;20043;-64
2021/08/30 08:24:30;;;;;;;2.00;0.90;;;;;;;19.32;80.03;97722.66;4985633;28;20120;-62
2021/08/30 08:26:56;;;;;;;2.08;1.00;;;;;;;20.54;78.24;97731.09;4985416;28;20096;-62
2021/08/30 08:29:22;;;;;;;1.60;0.90;;;;;;;20.47;77.81;97738.69;4987790;28;20373;-62
2021/08/30 08:31:48;;;;;;;1.33;0.90;;;;;;;19.49;80.11;97736.31;4988062;28;20073;-62
2021/08/30 08:34:13;;;;;;;1.50;0.90;;;;;;;19.27;78.60;97740.69;4991307;28;20066;-64
2021/08/30 08:36:40;;;;;;;1.90;1.00;;;;;;;19.77;75.80;97738.38;4993459;28;20050;-64
2021/08/30 08:39:07;;;;;;;2.10;1.10;;;;;;;20.13;76.56;97749.53;4992938;28;20080;-65
2021/08/30 08:41:35;;;;;;;1.60;1.00;;;;;;;21.11;74.45;97742.91;4992459;28;20034;-64
2021/08/30 08:44:02;;;;;;;2.50;1.00;;;;;;;23.44;65.60;97737.34;4991877;28;20046;-65
2021/08/30 08:46:28;;;;;;;1.30;0.80;;;;;;;22.55;65.25;97745.88;4989501;28;20046;-64
2021/08/30 08:48:55;;;;;;;2.15;0.93;;;;;;;22.09;67.08;97750.97;4992119;28;20400;-62
2021/08/30 08:51:21;;;;;;;1.60;1.00;;;;;;;21.92;66.74;97745.38;4987723;28;20496;-63
2021/08/30 08:53:46;;;;;;;2.15;1.00;;;;;;;21.22;69.44;97752.56;4993069;28;20045;-63
2021/08/30 08:56:13;;;;;;;2.15;1.10;;;;;;;21.42;66.05;97758.75;4993994;28;20132;-64
2021/08/30 08:58:40;;;;;;;1.52;1.00;;;;;;;20.71;68.56;97753.50;4990755;28;20034;-63
2021/08/30 09:01:12;;;;;;;2.60;1.10;;;;;;;20.36;70.48;97759.97;4991749;28;20068;-62
2021/08/30 09:03:48;;;;;;;;;;;;;;;20.70;69.70;97759.78;4990586;28;20053;-63
2021/08/30 09:06:38;;;;;;;1.65;1.00;;;;;;;19.99;73.65;97763.91;4990510;28;19953;-64
2021/08/30 09:09:11;;;;;;;2.00;1.10;;;;;;;20.25;72.26;97762.69;4988925;28;20018;-63
2021/08/30 09:11:52;;;;;;;1.85;1.20;;;;;;;19.52;74.11;97766.00;4989813;28;20444;-63
2021/08/30 09:14:20;;;;;;;2.22;1.30;;;;;;;19.52;74.52;97765.16;4989390;28;20084;-63
2021/08/30 09:16:46;;;;;;;2.05;1.30;;;;;;;20.19;71.63;97774.66;4988754;28;20108;-62
2021/08/30 09:19:14;;;;;;;2.28;1.30;;;;;;;18.59;76.18;97777.72;4992824;28;20026;-65
2021/08/30 09:21:47;;;;;;;2.75;1.15;;;;;;;19.39;75.45;97771.44;4989338;28;20129;-65
2021/08/30 09:24:22;;;;;;;2.53;1.20;;;;;;;19.98;71.91;97777.28;4992069;28;20030;-65
2021/08/30 09:26:51;;;;;;;2.00;1.15;;;;;;;20.73;71.47;97765.66;4989296;28;20107;-65
2021/08/30 09:29:23;;;;;;;1.80;1.10;;;;;;;22.62;64.90;97776.22;4992023;28;20030;-63
2021/08/30 09:32:14;;;;;;;5.55;1.30;;;;;;;21.89;64.85;97779.34;4991155;28;20125;-63
2021/08/30 09:34:44;;;;;;;1.60;1.00;;;;;;;24.09;59.98;97769.09;4993274;28;20030;-62
2021/08/30 09:37:16;;;;;;;1.90;1.15;;;;;;;24.13;59.83;97764.28;4991731;28;20315;-64
2021/08/30 09:39:59;;;;;;;1.80;1.00;;;;;;;23.52;61.25;97765.88;4991204;28;20026;-65
2021/08/30 09:42:26;;;;;;;1.70;1.00;;;;;;;21.69;66.75;97760.78;4989489;28;20041;-64
2021/08/30 09:44:52;;;;;;;1.40;1.00;;;;;;;21.12;66.56;97771.09;4991681;28;20038;-64
2021/08/30 09:47:21;;;;;;;2.00;1.10;;;;;;;22.39;63.78;97765.91;4989413;28;20130;-64
2021/08/30 09:49:48;;;;;;;1.35;0.90;;;;;;;22.07;65.48;97766.19;4990602;28;20034;-63
2021/08/30 09:52:13;;;;;;;1.42;0.90;;;;;;;22.27;65.94;97759.09;4993024;28;20037;-63
2021/08/30 09:54:39;;;;;;;1.33;0.90;;;;;;;21.01;69.25;97765.06;4990956;28;20030;-64
2021/08/30 09:57:06;;;;;;;1.55;0.88;;;;;;;21.28;70.34;97770.56;5000495;28;20516;-64
2021/08/30 09:59:32;;;;;;;5.38;0.98;;;;;;;20.87;72.75;97763.63;4991617;28;20026;-63
2021/08/30 10:02:00;;;;;;;1.85;1.00;;;;;;;20.91;71.11;97765.84;4988778;28;20129;-65
2021/08/30 10:04:26;;;;;;;2.05;1.00;;;;;;;20.87;73.01;97767.09;4993076;28;20021;-63
2021/08/30 10:06:54;;;;;;;1.70;1.10;;;;;;;21.35;70.36;97770.88;4988912;28;20112;-63
2021/08/30 10:09:20;;;;;;;1.50;0.90;;;;;;;21.01;70.23;97773.00;4988974;28;20022;-63
2021/08/30 10:11:48;;;;;;;1.70;1.00;;;;;;;20.90;70.98;97772.16;4989961;28;20710;-64
2021/08/30 10:14:19;;;;;;;1.58;0.82;;;;;;;21.49;67.50;97770.53;4989935;28;20026;-63
2021/08/30 10:16:45;;;;;;;1.50;0.80;;;;;;;22.87;64.43;97769.41;4989654;28;20129;-63
2021/08/30 10:19:11;;;;;;;1.35;0.85;;;;;;;23.27;62.89;97769.09;4988850;28;20484;-66
2021/08/30 10:21:45;;;;;;;1.83;1.00;;;;;;;22.83;62.29;97763.53;4987407;28;20054;-65
2021/08/30 10:24:15;;;;;;;2.95;0.85;;;;;;;22.96;63.03;97767.69;4988302;28;20034;-64
2021/08/30 10:26:43;;;;;;;1.05;0.82;;;;;;;23.41;62.86;97770.41;4988188;28;20053;-61
2021/08/30 10:29:11;;;;;;;1.30;0.80;;;;;;;23.03;60.04;97772.28;4988756;28;20058;-66
2021/08/30 10:31:46;;;;;;;1.13;0.80;;;;;;;23.17;59.72;97773.63;4987952;28;20531;-64
2021/08/30 10:34:26;;;;;;;1.45;0.90;;;;;;;23.33;55.80;97780.16;4988353;28;20038;-64
2021/08/30 10:36:52;;;;;;;2.53;0.90;;;;;;;24.28;53.39;97777.91;4987422;28;20042;-66
2021/08/30 10:39:18;;;;;;;1.30;0.90;;;;;;;24.37;52.32;97772.50;4988193;28;20132;-64
2021/08/30 10:41:45;;;;;;;1.33;0.82;;;;;;;23.46;52.68;97775.28;4987176;28;20038;-63
2021/08/30 10:44:17;;;;;;;1.23;0.80;;;;;;;22.68;55.21;97778.28;4988688;28;20076;-64
2021/08/30 10:46:44;;;;;;;0.98;0.65;;;;;;;21.85;57.55;97777.94;4988026;28;20042;-64
2021/08/30 10:49:25;;;;;;;2.83;0.85;;;;;;;22.50;56.39;97780.88;4987470;28;20032;-63
2021/08/30 10:52:03;;;;;;;1.40;0.80;;;;;;;22.00;58.70;97781.03;4991525;28;20046;-64
2021/08/30 10:54:28;;;;;;;1.88;0.98;;;;;;;21.87;59.01;97783.94;4990374;28;20026;-62
2021/08/30 10:56:59;;;;;;;1.10;0.80;;;;;;;21.94;59.75;97779.75;4992059;28;20166;-62
2021/08/30 10:59:27;;;;;;;;;;;;;;;21.71;60.67;97784.53;4992663;28;20084;-64
2021/08/30 11:01:59;;;;;;;1.35;0.90;;;;;;;21.57;60.18;97783.09;4993128;28;19924;-63
2021/08/30 11:04:33;;;;;;;1.60;1.00;;;;;;;21.30;62.17;97786.34;4989516;28;20533;-62
2021/08/30 11:06:59;;;;;;;1.35;0.90;;;;;;;21.71;61.84;97785.34;4998650;28;20485;-63
2021/08/30 11:09:24;;;;;;;1.65;1.00;;;;;;;22.80;57.80;97782.44;4988808;28;20044;-64
2021/08/30 11:11:51;;;;;;;2.03;1.00;;;;;;;24.46;54.98;97775.19;4989646;28;20044;-65
2021/08/30 11:14:20;;;;;;;1.63;1.00;;;;;;;23.79;55.85;97778.28;4992492;28;20123;-65
2021/08/30 11:16:54;;;;;;;1.30;1.00;;;;;;;24.94;52.85;97768.50;4988946;28;20076;-63
2021/08/30 11:19:20;;;;;;;1.30;0.80;;;;;;;22.77;56.95;97772.09;4989069;28;20030;-63
2021/08/30 11:21:47;;;;;;;2.22;1.02;;;;;;;22.68;56.58;97776.47;4999318;28;20041;-64
2021/08/30 11:24:36;;;;;;;1.80;1.00;;;;;;;21.87;58.22;97781.31;4992538;28;20022;-66
2021/08/30 11:27:11;;;;;;;1.52;1.00;;;;;;;22.03;58.93;97778.91;4988939;28;20040;-64
2021/08/30 11:29:41;;;;;;;1.50;0.90;;;;;;;21.88;60.32;97785.66;4992677;28;20027;-65
2021/08/30 11:32:07;;;;;;;1.70;1.00;;;;;;;21.00;67.06;97782.78;4987821;28;20050;-65
2021/08/30 11:34:36;;;;;;;3.85;1.00;;;;;;;21.85;66.33;97785.91;4994135;28;20096;-62